• Join FlightAware (Why Join?)
  • Login
  • US Flag 
01:30AM EDT


 

Airport Tracker/Info


-or-


 

Live Flight TrackerFlight Track Log ✈ N101WY ✈ 05-Oct-2013 ✈ KCYS - KIWA

Flight Track Log - Related Links

Times and Time Zones

All times are in EDT time to prevent confusion due to time zone crossing. See the N101WY flight status page for this flight to view local times or setup timezone preferences in your user account.

Time Position Orientation Groundspeed Altitude Reporting Facility
EDT Latitude Longitude Course Direction KTS MPH feet Rate Location/Type
09:47AM 41.1561 -104.8472 226° Southwest 207 238 8,200  Level Denver Center
09:48AM 41.1047 -104.9156 225° Southwest 285 328 11,100 2,880 Climbing Denver Center
09:49AM 41.0211 -105.0042 219° Southwest 336 387 14,100 3,000 Climbing Denver Center
09:50AM 40.9536 -105.0792 220° Southwest 352 405 17,200 2,760 Climbing Denver Center
09:51AM 40.8786 -105.1592 219° Southwest 350 403 19,800 2,580 Climbing Denver Center
09:52AM 40.8500 -105.2658 251° West 322 371 22,500 2,700 Climbing Denver Center
09:53AM 40.7099 -105.2513 226° Southwest  Level Estimated
09:53AM 40.8444 -105.3836 266° West 324 373 25,300  Level Denver Center
09:54AM 40.7628 -105.4903 225° Southwest 349 402 28,200 2,400 Climbing Denver Center
09:56AM 40.6878 -105.5681 218° Southwest 346 398 30,200 1,740 Climbing Denver Center
09:57AM 40.6097 -105.6464 217° Southwest 352 405 31,800 1,320 Climbing Denver Center
09:58AM 40.5272 -105.7300 218° Southwest 372 428 32,900 1,080 Climbing Denver Center
09:59AM 40.4381 -105.8206 218° Southwest 402 463 34,000 540 Climbing Denver Center
10:00AM 40.3489 -105.9108 218° Southwest 408 470 34,000  Level Denver Center
10:01AM 40.2622 -105.9997 218° Southwest 400 460 34,000  Level Denver Center
10:02AM 40.1767 -106.0850 217° Southwest 392 451 34,000 120 Level Denver Center
10:03AM 40.0911 -106.1711 218° Southwest 390 449 34,300 780 Climbing Denver Center
10:04AM 40.0064 -106.2575 218° Southwest 388 447 35,600 1,260 Climbing Denver Center
10:05AM 39.9008 -106.3631 218° Southwest 397 457 36,900 1,200 Climbing Denver Center
10:06AM 39.8094 -106.4528 217° Southwest 408 470 38,100 1,260 Climbing Denver Center
10:07AM 39.7233 -106.5383 217° Southwest 388 447 39,600 900 Climbing Denver Center
10:08AM 39.6458 -106.6142 217° Southwest 375 432 40,000 180 Climbing Denver Center
10:09AM 39.5553 -106.7033 217° Southwest 365 420 40,000  Level Denver Center
10:10AM 39.4794 -106.7769 217° Southwest 357 411 40,000  Level Denver Center
10:11AM 39.4047 -106.8500 217° Southwest 353 406 40,000  Level Denver Center
10:12AM 39.3189 -106.9347 217° Southwest 348 400 40,000  Level Denver Center
10:13AM 39.2456 -107.0111 219° Southwest 351 404 40,000  Level Denver Center
10:14AM 39.1578 -107.0978 217° Southwest 356 410 40,000  Level Denver Center
10:15AM 39.0831 -107.1697 217° Southwest 352 405 40,000  Level Denver Center
10:16AM 39.0064 -107.2428 217° Southwest 355 409 40,000  Level Denver Center
10:17AM 38.9208 -107.3258 217° Southwest 347 399 40,000  Level Denver Center
10:18AM 38.8458 -107.3958 216° Southwest 347 399 40,000  Level Denver Center
10:19AM 38.7725 -107.4683 218° Southwest 349 402 40,000  Level Denver Center
10:20AM 38.6856 -107.5511 217° Southwest 347 399 40,000  Level Denver Center
10:21AM 38.6106 -107.6211 216° Southwest 348 400 40,000  Level Denver Center
10:22AM 38.5231 -107.7053 217° Southwest 351 404 40,000  Level Denver Center
10:23AM 38.4483 -107.7753 216° Southwest 348 400 40,000  Level Denver Center
10:24AM 38.3722 -107.8472 217° Southwest 353 406 40,000  Level Denver Center
10:25AM 38.2831 -107.9303 216° Southwest 354 407 40,000  Level Denver Center
10:26AM 38.2056 -108.0008 216° Southwest 356 410 40,000  Level Denver Center
10:27AM 38.1153 -108.0883 217° Southwest 362 417 40,000  Level Denver Center
10:28AM 38.0406 -108.1567 216° Southwest 360 414 40,000  Level Denver Center
10:29AM 37.9494 -108.2406 216° Southwest 361 415 40,000  Level Denver Center
10:30AM 37.8714 -108.3125 216° Southwest 363 418 40,000  Level Denver Center
10:31AM 37.7944 -108.3858 217° Southwest 361 415 40,000  Level Denver Center
10:32AM 37.7044 -108.4689 216° Southwest 360 414 40,000  Level Denver Center
10:33AM 37.6294 -108.5386 216° Southwest 352 405 40,000  Level Denver Center
10:34AM 37.5417 -108.6206 217° Southwest 350 403 40,000  Level Denver Center
10:35AM 37.4667 -108.6847 214° Southwest 344 396 40,000  Level Denver Center
10:36AM 37.3797 -108.7656 216° Southwest 347 399 40,000  Level Denver Center
10:37AM 37.3044 -108.8325 215° Southwest 348 400 40,000  Level Denver Center
10:38AM 37.2289 -108.9011 216° Southwest 349 402 40,000  Level Denver Center
10:39AM 37.1411 -108.9808 216° Southwest 349 402 40,000  Level Denver Center
10:41AM 37.0656 -109.0497 216° Southwest 350 403 40,000  Level Denver Center
10:42AM 36.9786 -109.1272 215° Southwest 346 398 40,000  Level Denver Center
10:43AM 36.9022 -109.1958 216° Southwest 351 404 40,000  Level Denver Center
10:44AM 36.8139 -109.2744 215° Southwest 350 403 40,000  Level Denver Center
10:45AM 36.7389 -109.3408 215° Southwest 346 398 40,000  Level Denver Center
10:46AM 36.6514 -109.4186 216° Southwest 347 399 40,000  Level Denver Center
10:47AM 36.5778 -109.4853 216° Southwest 344 396 40,000  Level Denver Center
10:48AM 36.4911 -109.5622 216° Southwest 343 395 40,000  Level Denver Center
10:49AM 36.4167 -109.6267 215° Southwest 343 395 40,000  Level Denver Center
10:50AM 36.3425 -109.6922 215° Southwest 343 395 40,000  Level Denver Center
10:51AM 36.2550 -109.7675 215° Southwest 343 395 40,000  Level Denver Center
10:52AM 36.1800 -109.8328 215° Southwest 343 395 40,000 -240 Level Denver Center
10:53AM 36.0936 -109.9089 215° Southwest 343 395 39,600 -720 Descending Denver Center
10:54AM 36.0156 -109.9781 216° Southwest 353 406 38,600 -1,320 Descending Denver Center
10:55AM 35.9142 -110.0650 215° Southwest 387 445 37,000 -1,500 Descending Denver Center
10:56AM 35.8428 -110.1236 214° Southwest 385 443 35,800 -1,500 Descending Albuquerque Center
10:57AM 35.7639 -110.1881 214° Southwest 364 419 34,300 -900 Descending Albuquerque Center
10:58AM 35.6794 -110.2642 216° Southwest 344 396 34,000 -180 Descending Albuquerque Center
10:59AM 35.6056 -110.3258 214° Southwest 337 388 34,000  Level Albuquerque Center
11:00AM 35.5172 -110.4003 214° Southwest 342 394 34,000 -360 Level Albuquerque Center
11:01AM 35.4411 -110.4672 216° Southwest 351 404 33,300 -1,020 Descending Albuquerque Center
11:02AM 35.3478 -110.5469 215° Southwest 364 419 31,900 -2,100 Descending Albuquerque Center
11:03AM 35.2653 -110.6144 214° Southwest 369 425 29,000 -2,220 Descending Albuquerque Center
11:04AM 35.1722 -110.6942 215° Southwest 368 423 27,400 -1,080 Descending Albuquerque Center
11:05AM 35.0900 -110.7642 215° Southwest 375 432 26,800 -600 Descending Albuquerque Center
11:06AM 34.9850 -110.7806 187° South 385 443 26,200 -660 Descending Albuquerque Center
11:07AM 34.8783 -110.7592 171° South 386 444 25,500 -780 Descending Albuquerque Center
11:08AM 34.7725 -110.7394 171° South 382 440 24,600 -960 Descending Albuquerque Center
11:09AM 34.6583 -110.7197 172° South 375 432 23,500 -1,020 Descending Albuquerque Center
11:10AM 34.5272 -110.6944 171° South 373 429 22,400 -960 Descending Albuquerque Center
11:11AM 34.4269 -110.6769 172° South 371 427 21,500 -900 Descending Albuquerque Center
11:12AM 34.3219 -110.6581 172° South 375 432 20,600 -1,020 Descending Albuquerque Center
11:13AM 34.2053 -110.6350 171° South 392 451 19,400 -1,200 Descending Albuquerque Center
11:15AM 34.1067 -110.6619 193° South 371 427 18,200 -1,260 Descending Albuquerque Center
11:16AM 34.0272 -110.7178 210° Southwest 355 409 16,800 -1,560 Descending Albuquerque Center
11:17AM 33.9389 -110.7733 208° Southwest 355 409 15,100 -1,680 Descending Albuquerque Center
11:18AM 33.8525 -110.8322 210° Southwest 357 411 13,400 -1,620 Descending Albuquerque Center
11:19AM 33.7814 -110.9319 229° Southwest 333 383 11,900 -1,200 Descending Albuquerque Center
11:20AM 33.7283 -111.0131 232° Southwest 316 364 11,000 -720 Descending Albuquerque Center
11:21AM 33.6783 -111.0931 233° Southwest 303 349 10,400 -420 Descending Albuquerque Center
11:22AM 33.6272 -111.1703 232° Southwest 297 342 10,200 -600 Descending Albuquerque Center
11:23AM 33.5811 -111.2475 234° Southwest 287 330 9,200 -720 Descending Albuquerque Center
11:24AM 33.5336 -111.3253 234° Southwest 289 333 8,800 -660 Descending Albuquerque Center
11:25AM 33.4842 -111.3936 229° Southwest 274 315 7,900 -840 Descending Albuquerque Center
11:26AM 33.4139 -111.4461 212° Southwest 251 289 7,100 -480 Descending Albuquerque Center
11:27AM 33.3686 -111.5000 225° Southwest 247 284 7,000 -960 Descending Albuquerque Center
11:28AM 33.3750 -111.5731 276° West 225 259 5,200 -1,620 Descending Albuquerque Center
11:29AM 33.3783 -111.6428 273° West 211 243 3,700 -1,260 Descending Albuquerque Center
11:30AM 33.3542 -111.6894 238° Southwest 170 196 2,600 -1,140 Descending Albuquerque Center
11:31AM 33.3225 -111.6767 161° South 131 151 1,400 -1,200 Descending Albuquerque Center
11:33AM 33.3078 -111.6555 151° Southeast  Level Estimated